createdAt,value
2023-03-11T00:00:50.713Z,93329.78
2023-03-11T00:03:18.489Z,93316.53
2023-03-11T00:05:46.241Z,93331.25
2023-03-11T00:08:15.495Z,93343.63
2023-03-11T00:10:42.990Z,93353.50
2023-03-11T00:13:10.601Z,93333.00
2023-03-11T00:15:37.617Z,93317.78
2023-03-11T00:18:04.944Z,93319.03
2023-03-11T00:20:33.164Z,93324.34
2023-03-11T00:22:59.867Z,93309.34
2023-03-11T00:25:27.511Z,93308.56
2023-03-11T00:27:54.503Z,93295.78
2023-03-11T00:30:21.917Z,93308.63
2023-03-11T00:32:49.353Z,93307.94
2023-03-11T00:35:17.328Z,93315.03
2023-03-11T00:37:45.721Z,93308.84
2023-03-11T00:40:13.946Z,93304.59
2023-03-11T00:42:40.847Z,93307.28
2023-03-11T00:45:07.783Z,93297.16
2023-03-11T00:47:34.559Z,93307.75
2023-03-11T00:50:01.392Z,93294.38
2023-03-11T00:52:29.001Z,93281.34
2023-03-11T00:54:56.063Z,93283.78
2023-03-11T00:57:22.831Z,93284.75
2023-03-11T00:59:49.426Z,93269.47
2023-03-11T01:02:16.464Z,93267.97
2023-03-11T01:04:43.098Z,93260.78
2023-03-11T01:07:11.300Z,93266.16
2023-03-11T01:09:38.259Z,93264.53
2023-03-11T01:12:05.124Z,93255.34
2023-03-11T01:14:31.918Z,93255.59
2023-03-11T01:16:58.562Z,93256.91
2023-03-11T01:19:25.140Z,93249.41
2023-03-11T01:21:53.987Z,93243.84
2023-03-11T01:24:20.722Z,93234.34
2023-03-11T01:26:47.370Z,93226.66
2023-03-11T01:29:14.032Z,93217.69
2023-03-11T01:31:40.703Z,93215.03
2023-03-11T01:34:07.444Z,93219.44
2023-03-11T01:36:34.330Z,93211.72
2023-03-11T01:39:00.914Z,93197.84
2023-03-11T01:41:27.700Z,93193.00
2023-03-11T01:43:54.803Z,93185.72
2023-03-11T01:46:26.391Z,93192.19
2023-03-11T01:48:57.890Z,93189.97
2023-03-11T01:51:35.907Z,93176.09
2023-03-11T01:54:05.569Z,93180.91
2023-03-11T01:56:33.031Z,93181.56
2023-03-11T01:59:00.231Z,93194.00
2023-03-11T02:01:27.028Z,93202.50
2023-03-11T02:03:55.312Z,93220.47
2023-03-11T02:06:23.725Z,93226.25
2023-03-11T02:08:51.290Z,93208.75
2023-03-11T02:11:24.921Z,93221.25
2023-03-11T02:13:54.569Z,93222.38
2023-03-11T02:16:21.301Z,93228.72
2023-03-11T02:18:48.225Z,93231.28
2023-03-11T02:21:26.933Z,93241.72
2023-03-11T02:24:14.165Z,93245.25
2023-03-11T02:26:44.471Z,93251.25
2023-03-11T02:29:12.098Z,93239.53
2023-03-11T02:31:43.099Z,93248.25
2023-03-11T02:34:16.134Z,93241.28
2023-03-11T02:36:43.016Z,93237.19
2023-03-11T02:39:12.990Z,93236.81
2023-03-11T02:41:41.805Z,93231.09
2023-03-11T02:44:10.617Z,93232.00
2023-03-11T02:46:38.950Z,93232.16
2023-03-11T02:49:06.416Z,93250.38
2023-03-11T02:51:33.725Z,93248.88
2023-03-11T02:54:03.347Z,93258.41
2023-03-11T02:56:30.855Z,93265.28
2023-03-11T02:58:59.120Z,93254.25
2023-03-11T03:01:25.899Z,93258.94
2023-03-11T03:03:53.144Z,93245.09
2023-03-11T03:06:19.985Z,93249.88
2023-03-11T03:08:50.962Z,93250.97
2023-03-11T03:11:17.760Z,93243.63
2023-03-11T03:13:46.063Z,93256.97
2023-03-11T03:16:12.857Z,93254.22
2023-03-11T03:18:39.826Z,93251.66
2023-03-11T03:21:08.064Z,93251.72
2023-03-11T03:23:37.668Z,93260.28
2023-03-11T03:26:05.901Z,93259.91
2023-03-11T03:28:35.677Z,93255.44
2023-03-11T03:31:07.035Z,93253.28
2023-03-11T03:33:34.837Z,93251.34
2023-03-11T03:36:05.750Z,93261.91
2023-03-11T03:38:38.319Z,93255.44
2023-03-11T03:41:05.117Z,93249.41
2023-03-11T03:43:33.392Z,93259.06
2023-03-11T03:46:04.882Z,93255.97
2023-03-11T03:48:38.469Z,93253.78
2023-03-11T03:51:08.399Z,93252.25
2023-03-11T03:53:37.007Z,93236.81
2023-03-11T03:56:04.996Z,93245.44
2023-03-11T03:58:33.469Z,93244.13
2023-03-11T04:01:00.301Z,93245.13
2023-03-11T04:03:27.775Z,93246.13
2023-03-11T04:06:25.952Z,93248.03
2023-03-11T04:08:57.863Z,93249.69
2023-03-11T04:11:29.145Z,93247.66
2023-03-11T04:13:56.764Z,93223.72
2023-03-11T04:16:24.447Z,93243.41
2023-03-11T04:18:57.203Z,93251.25
2023-03-11T04:21:24.252Z,93244.66
2023-03-11T04:23:51.056Z,93242.50
2023-03-11T04:26:21.389Z,93252.25
2023-03-11T04:28:48.199Z,93253.47
2023-03-11T04:31:15.295Z,93253.75
2023-03-11T04:33:42.264Z,93256.47
2023-03-11T04:36:10.556Z,93252.72
2023-03-11T04:38:38.185Z,93247.69
2023-03-11T04:41:07.354Z,93249.28
2023-03-11T04:43:36.504Z,93246.53
2023-03-11T04:46:03.458Z,93243.69
2023-03-11T04:48:30.185Z,93246.84
2023-03-11T04:50:57.072Z,93240.09
2023-03-11T04:53:24.237Z,93240.28
2023-03-11T04:55:52.464Z,93243.25
2023-03-11T04:58:19.785Z,93240.63
2023-03-11T05:00:47.618Z,93253.19
2023-03-11T05:03:15.373Z,93267.13
2023-03-11T05:05:42.204Z,93267.44
2023-03-11T05:08:09.771Z,93265.25
2023-03-11T05:10:36.845Z,93268.69
2023-03-11T05:13:06.125Z,93270.72
2023-03-11T05:15:37.618Z,93273.97
2023-03-11T05:18:05.780Z,93271.44
2023-03-11T05:20:34.540Z,93280.56
2023-03-11T05:23:01.787Z,93274.63
2023-03-11T05:25:30.372Z,93285.13
2023-03-11T05:27:57.493Z,93285.53
2023-03-11T05:30:24.331Z,93278.72
2023-03-11T05:32:51.939Z,93290.25
2023-03-11T05:35:18.724Z,93290.34
2023-03-11T05:37:45.659Z,93296.50
2023-03-11T05:40:13.493Z,93302.25
2023-03-11T05:42:41.843Z,93300.78
2023-03-11T05:45:10.716Z,93304.47
2023-03-11T05:47:39.150Z,93312.91
2023-03-11T05:50:06.576Z,93317.50
2023-03-11T05:52:33.967Z,93312.16
2023-03-11T05:55:00.932Z,93319.91
2023-03-11T05:57:29.593Z,93321.13
2023-03-11T05:59:56.965Z,93328.59
2023-03-11T06:02:24.631Z,93334.53
2023-03-11T06:04:51.419Z,93342.25
2023-03-11T06:07:18.621Z,93341.53
2023-03-11T06:09:49.705Z,93324.31
2023-03-11T06:12:18.366Z,93340.03
2023-03-11T06:15:03.316Z,93338.69
2023-03-11T06:17:30.622Z,93339.53
2023-03-11T06:19:57.872Z,93338.59
2023-03-11T06:22:25.527Z,93343.63
2023-03-11T06:24:52.211Z,93354.09
2023-03-11T06:27:19.187Z,93353.44
2023-03-11T06:29:48.294Z,93345.47
2023-03-11T06:32:15.708Z,93353.50
2023-03-11T06:34:42.472Z,93350.41
2023-03-11T06:37:09.290Z,93342.97
2023-03-11T06:39:35.960Z,93344.84
2023-03-11T06:42:02.597Z,93348.25
2023-03-11T06:44:29.919Z,93342.88
2023-03-11T06:46:56.879Z,93342.84
2023-03-11T06:49:23.594Z,93340.94
2023-03-11T06:51:50.421Z,93343.94
2023-03-11T06:54:17.683Z,93345.03
2023-03-11T06:56:45.051Z,93343.34
2023-03-11T06:59:14.333Z,93348.56
2023-03-11T07:01:41.168Z,93349.28
2023-03-11T07:04:10.456Z,93348.59
2023-03-11T07:06:39.247Z,93347.75
2023-03-11T07:09:11.296Z,93349.41
2023-03-11T07:11:42.497Z,93348.81
2023-03-11T07:14:13.166Z,93356.34
2023-03-11T07:16:44.098Z,93355.13
2023-03-11T07:19:18.940Z,93362.38
2023-03-11T07:21:45.609Z,93347.25
2023-03-11T07:24:14.236Z,93343.56
2023-03-11T07:26:42.649Z,93342.28
2023-03-11T07:29:10.857Z,93339.13
2023-03-11T07:31:38.251Z,93333.09
2023-03-11T07:34:11.081Z,93333.38
2023-03-11T07:36:39.599Z,93328.41
2023-03-11T07:39:06.722Z,93324.09
2023-03-11T07:41:34.322Z,93316.06
2023-03-11T07:44:01.585Z,93309.94
2023-03-11T07:46:29.156Z,93318.97
2023-03-11T07:48:55.799Z,93302.16
2023-03-11T07:51:24.546Z,93307.41
2023-03-11T07:53:52.509Z,93301.06
2023-03-11T07:56:20.295Z,93296.84
2023-03-11T07:58:47.029Z,93298.16
2023-03-11T08:01:17.818Z,93287.28
2023-03-11T08:03:45.621Z,93283.16
2023-03-11T08:06:22.461Z,93276.69
2023-03-11T08:08:49.186Z,93261.13
2023-03-11T08:11:16.436Z,93260.53
2023-03-11T08:13:43.712Z,93265.78
2023-03-11T08:16:11.819Z,93260.09
2023-03-11T08:18:38.616Z,93252.81
2023-03-11T08:21:06.044Z,93253.41
2023-03-11T08:23:33.801Z,93255.66
2023-03-11T08:26:04.642Z,93236.28
2023-03-11T08:28:31.499Z,93224.00
2023-03-11T08:30:58.103Z,93221.16
2023-03-11T08:33:24.973Z,93214.09
2023-03-11T08:35:51.666Z,93223.00
2023-03-11T08:38:18.530Z,93211.69
2023-03-11T08:40:45.096Z,93205.38
2023-03-11T08:43:15.073Z,93211.66
2023-03-11T08:45:41.945Z,93206.63
2023-03-11T08:48:10.594Z,93221.34
2023-03-11T08:50:52.970Z,93198.38
2023-03-11T08:53:21.476Z,93193.91
2023-03-11T08:55:48.104Z,93189.84
2023-03-11T08:58:14.695Z,93183.94
2023-03-11T09:00:41.389Z,93183.31
2023-03-11T09:03:08.121Z,93188.25
2023-03-11T09:05:34.973Z,93181.56
2023-03-11T09:08:04.976Z,93182.25
2023-03-11T09:10:32.375Z,93177.22
2023-03-11T09:12:58.896Z,93174.84
2023-03-11T09:15:25.576Z,93166.59
2023-03-11T09:17:53.089Z,93169.31
2023-03-11T09:20:20.387Z,93173.09
2023-03-11T09:22:47.381Z,93166.94
2023-03-11T09:25:16.241Z,93176.72
2023-03-11T09:27:43.214Z,93175.19
2023-03-11T09:30:10.251Z,93164.53
2023-03-11T09:32:37.171Z,93155.97
2023-03-11T09:35:04.209Z,93148.59
2023-03-11T09:37:30.829Z,93167.50
2023-03-11T09:39:57.529Z,93164.03
2023-03-11T09:42:33.045Z,93157.41
2023-03-11T09:45:17.063Z,93144.03
2023-03-11T09:48:02.061Z,93151.94
2023-03-11T09:50:34.774Z,93161.34
2023-03-11T09:53:13.781Z,93148.69
2023-03-11T09:55:40.582Z,93154.03
2023-03-11T09:58:15.804Z,93137.47
2023-03-11T10:00:42.708Z,93139.47
2023-03-11T10:03:38.644Z,93142.50
2023-03-11T10:06:26.907Z,93135.56
2023-03-11T10:09:03.092Z,93139.34
2023-03-11T10:11:32.791Z,93158.75
2023-03-11T10:14:10.253Z,93150.97
2023-03-11T10:16:39.763Z,93161.41
2023-03-11T10:19:45.011Z,93161.72
2023-03-11T10:22:20.390Z,93166.78
2023-03-11T10:24:58.775Z,93162.06
2023-03-11T10:27:30.196Z,93157.69
2023-03-11T10:29:59.769Z,93165.69
2023-03-11T10:32:34.181Z,93169.94
2023-03-11T10:35:06.041Z,93154.16
2023-03-11T10:37:48.861Z,93166.22
2023-03-11T10:40:31.422Z,93158.91
2023-03-11T10:43:00.716Z,93165.69
2023-03-11T10:45:38.039Z,93159.09
2023-03-11T10:48:11.967Z,93164.34
2023-03-11T10:50:42.920Z,93164.94
2023-03-11T10:53:11.249Z,93178.50
2023-03-11T10:55:45.749Z,93199.25
2023-03-11T10:58:13.785Z,93202.91
2023-03-11T11:00:40.489Z,93195.81
2023-03-11T11:03:16.871Z,93202.16
2023-03-11T11:05:43.640Z,93195.25
2023-03-11T11:08:14.062Z,93199.19
2023-03-11T11:10:54.221Z,93199.28
2023-03-11T11:13:22.284Z,93190.47
2023-03-11T11:15:56.950Z,93187.41
2023-03-11T11:18:25.668Z,93181.88
2023-03-11T11:21:12.486Z,93184.34
2023-03-11T11:23:39.631Z,93171.38
2023-03-11T11:26:08.978Z,93167.78
2023-03-11T11:28:35.851Z,93161.31
2023-03-11T11:31:04.282Z,93158.81
2023-03-11T11:33:32.440Z,93154.63
2023-03-11T11:36:03.707Z,93141.78
2023-03-11T11:38:32.569Z,93142.47
2023-03-11T11:41:01.690Z,93141.59
2023-03-11T11:43:34.519Z,93135.22
2023-03-11T11:46:05.608Z,93136.28
2023-03-11T11:48:44.926Z,93129.88
2023-03-11T11:51:35.250Z,93126.19
2023-03-11T11:54:25.255Z,93112.09
2023-03-11T11:56:51.940Z,93109.25
2023-03-11T11:59:20.291Z,93099.19
2023-03-11T12:01:47.025Z,93113.59
2023-03-11T12:04:19.622Z,93102.38
2023-03-11T12:06:54.241Z,93099.84
2023-03-11T12:09:24.339Z,93105.28
2023-03-11T12:12:01.618Z,93096.75
2023-03-11T12:14:36.990Z,93089.00
2023-03-11T12:17:04.796Z,93087.06
2023-03-11T12:19:37.492Z,93084.56
2023-03-11T12:22:21.440Z,93075.16
2023-03-11T12:25:06.995Z,93078.97
2023-03-11T12:27:37.571Z,93089.91
2023-03-11T12:30:15.166Z,93077.13
2023-03-11T12:32:48.156Z,93072.44
2023-03-11T12:35:24.336Z,93083.31
2023-03-11T12:38:13.263Z,93091.13
2023-03-11T12:40:50.640Z,93092.13
2023-03-11T12:43:29.958Z,93092.31
2023-03-11T12:46:01.042Z,93083.22
2023-03-11T12:48:36.885Z,93096.03
2023-03-11T12:51:05.645Z,93090.72
2023-03-11T12:53:43.501Z,93101.63
2023-03-11T12:56:35.686Z,93104.28
2023-03-11T12:59:33.409Z,93102.94
2023-03-11T13:02:24.601Z,93104.06
2023-03-11T13:04:59.752Z,93119.84
2023-03-11T13:07:39.946Z,93116.50
2023-03-11T13:10:21.577Z,93120.09
2023-03-11T13:12:50.789Z,93122.78
2023-03-11T13:15:39.522Z,93136.63
2023-03-11T13:18:23.412Z,93143.88
2023-03-11T13:20:59.329Z,93144.66
2023-03-11T13:23:28.283Z,93147.09
2023-03-11T13:25:54.918Z,93169.41
2023-03-11T13:28:52.706Z,93176.41
2023-03-11T13:31:38.413Z,93178.56
2023-03-11T13:34:41.779Z,93206.25
2023-03-11T13:37:29.082Z,93228.91
2023-03-11T13:40:23.628Z,93238.69
2023-03-11T13:42:54.457Z,93254.44
2023-03-11T13:45:36.244Z,93251.97
2023-03-11T13:48:18.744Z,93243.59
2023-03-11T13:50:56.831Z,93253.16
2023-03-11T13:53:34.428Z,93255.28
2023-03-11T13:56:01.424Z,93266.22
2023-03-11T13:58:29.102Z,93267.34
2023-03-11T14:00:59.058Z,93263.09
2023-03-11T14:03:34.125Z,93265.97
2023-03-11T14:06:03.857Z,93252.34
2023-03-11T14:08:41.196Z,93238.03
2023-03-11T14:11:11.145Z,93247.94
2023-03-11T14:13:46.297Z,93249.25
2023-03-11T14:16:23.883Z,93245.06
2023-03-11T14:19:12.320Z,93258.91
2023-03-11T14:21:44.314Z,93267.03
2023-03-11T14:24:20.620Z,93263.22
2023-03-11T14:26:48.704Z,93267.31
2023-03-11T14:29:20.860Z,93268.63
2023-03-11T14:31:48.160Z,93268.88
2023-03-11T14:34:21.522Z,93277.28
2023-03-11T14:37:00.110Z,93276.75
2023-03-11T14:39:32.640Z,93266.09
2023-03-11T14:42:07.896Z,93270.16
2023-03-11T14:44:42.965Z,93273.75
2023-03-11T14:47:18.659Z,93286.25
2023-03-11T14:49:47.630Z,93271.66
2023-03-11T14:52:21.544Z,93288.78
2023-03-11T14:54:49.911Z,93284.00
2023-03-11T14:57:24.517Z,93287.47
2023-03-11T14:59:53.191Z,93288.81
2023-03-11T15:02:31.973Z,93298.28
2023-03-11T15:05:00.701Z,93295.16
2023-03-11T15:07:27.574Z,93317.31
2023-03-11T15:09:55.744Z,93329.94
2023-03-11T15:12:41.590Z,93330.34
2023-03-11T15:15:41.035Z,93348.56
2023-03-11T15:18:23.879Z,93351.22
2023-03-11T15:21:06.070Z,93354.66
2023-03-11T15:23:35.243Z,93360.69
2023-03-11T15:26:02.403Z,93375.00
2023-03-11T15:28:30.214Z,93369.72
2023-03-11T15:31:21.878Z,93387.25
2023-03-11T15:33:49.703Z,93390.34
2023-03-11T15:36:55.517Z,93391.88
2023-03-11T15:39:28.839Z,93405.97
2023-03-11T15:42:07.382Z,93400.84
2023-03-11T15:44:49.641Z,93410.47
2023-03-11T15:47:19.335Z,93416.69
2023-03-11T15:49:47.044Z,93424.00
2023-03-11T15:52:14.249Z,93428.47
2023-03-11T15:54:41.078Z,93440.25
2023-03-11T15:57:12.751Z,93453.03
2023-03-11T15:59:41.223Z,93453.09
2023-03-11T16:02:18.996Z,93458.28
2023-03-11T16:04:45.799Z,93471.56
2023-03-11T16:07:12.477Z,93485.81
2023-03-11T16:09:39.165Z,93478.63
2023-03-11T16:12:14.631Z,93493.97
2023-03-11T16:14:41.233Z,93498.56
2023-03-11T16:17:08.145Z,93518.09
2023-03-11T16:19:34.757Z,93506.31
2023-03-11T16:22:02.779Z,93516.06
2023-03-11T16:24:29.428Z,93522.16
2023-03-11T16:26:56.887Z,93526.91
2023-03-11T16:29:24.110Z,93534.63
2023-03-11T16:31:50.795Z,93548.03
2023-03-11T16:34:17.699Z,93547.53
2023-03-11T16:36:44.422Z,93565.59
2023-03-11T16:39:11.131Z,93570.53
2023-03-11T16:41:42.131Z,93581.44
2023-03-11T16:44:09.872Z,93589.88
2023-03-11T16:46:36.800Z,93598.03
2023-03-11T16:49:03.978Z,93606.72
2023-03-11T16:51:30.633Z,93612.28
2023-03-11T16:53:57.238Z,93616.44
2023-03-11T16:56:23.972Z,93620.16
2023-03-11T16:58:50.761Z,93642.41
2023-03-11T17:01:19.096Z,93638.59
2023-03-11T17:03:48.789Z,93648.50
2023-03-11T17:06:16.332Z,93657.66
2023-03-11T17:08:49.096Z,93672.25
2023-03-11T17:11:28.422Z,93683.72
2023-03-11T17:14:03.284Z,93689.91
2023-03-11T17:16:40.567Z,93708.78
2023-03-11T17:19:07.251Z,93722.31
2023-03-11T17:21:33.882Z,93727.78
2023-03-11T17:24:00.531Z,93749.03
2023-03-11T17:26:30.868Z,93756.34
2023-03-11T17:28:57.602Z,93761.22
2023-03-11T17:31:24.279Z,93758.09
2023-03-11T17:33:52.593Z,93772.25
2023-03-11T17:36:19.672Z,93773.34
2023-03-11T17:38:47.050Z,93777.38
2023-03-11T17:41:16.035Z,93782.88
2023-03-11T17:43:43.383Z,93788.72
2023-03-11T17:46:11.624Z,93798.63
2023-03-11T17:48:38.363Z,93807.59
2023-03-11T17:51:06.302Z,93809.47
2023-03-11T17:53:33.427Z,93804.66
2023-03-11T17:56:00.138Z,93802.00
2023-03-11T17:58:27.131Z,93805.81
2023-03-11T18:00:53.727Z,93819.75
2023-03-11T18:03:20.418Z,93826.38
2023-03-11T18:05:57.265Z,93831.28
2023-03-11T18:08:24.351Z,93843.31
2023-03-11T18:10:51.846Z,93850.75
2023-03-11T18:13:19.289Z,93854.91
2023-03-11T18:15:46.381Z,93873.88
2023-03-11T18:18:13.292Z,93867.19
2023-03-11T18:20:40.231Z,93869.88
2023-03-11T18:23:06.838Z,93874.34
2023-03-11T18:25:34.061Z,93877.41
2023-03-11T18:28:00.637Z,93883.66
2023-03-11T18:30:27.345Z,93886.13
2023-03-11T18:32:53.966Z,93894.84
2023-03-11T18:35:21.628Z,93896.22
2023-03-11T18:37:48.249Z,93896.81
2023-03-11T18:40:15.031Z,93897.50
2023-03-11T18:42:41.887Z,93901.13
2023-03-11T18:45:08.868Z,93899.41
2023-03-11T18:47:35.733Z,93905.50
2023-03-11T18:50:04.404Z,93906.16
2023-03-11T18:52:31.167Z,93911.94
2023-03-11T18:54:57.816Z,93920.50
2023-03-11T18:57:24.608Z,93911.81
2023-03-11T18:59:52.058Z,93913.16
2023-03-11T19:02:19.018Z,93906.69
2023-03-11T19:04:45.700Z,93915.50
2023-03-11T19:07:12.508Z,93909.06
2023-03-11T19:09:39.153Z,93915.56
2023-03-11T19:12:05.901Z,93918.63
2023-03-11T19:14:33.102Z,93936.66
2023-03-11T19:16:59.796Z,93935.16
2023-03-11T19:19:26.586Z,93940.63
2023-03-11T19:21:53.428Z,93942.59
2023-03-11T19:24:21.053Z,93953.59
2023-03-11T19:26:47.844Z,93961.38
2023-03-11T19:29:14.824Z,93961.75
2023-03-11T19:31:43.446Z,93966.50
2023-03-11T19:34:10.170Z,93976.66
2023-03-11T19:36:36.700Z,93969.28
2023-03-11T19:39:03.619Z,93976.88
2023-03-11T19:41:30.309Z,93983.22
2023-03-11T19:43:56.950Z,93986.88
2023-03-11T19:46:23.776Z,93999.31
2023-03-11T19:48:50.865Z,94003.09
2023-03-11T19:51:19.139Z,94013.78
2023-03-11T19:53:47.078Z,94011.03
2023-03-11T19:56:13.876Z,94014.03
2023-03-11T19:58:41.648Z,94016.91
2023-03-11T20:01:15.218Z,94020.03
2023-03-11T20:03:43.024Z,94032.47
2023-03-11T20:06:09.752Z,94021.19
2023-03-11T20:08:37.807Z,94029.94
2023-03-11T20:11:05.617Z,94041.41
2023-03-11T20:13:33.731Z,94039.94
2023-03-11T20:16:11.294Z,94038.78
2023-03-11T20:18:38.187Z,94048.28
2023-03-11T20:21:05.924Z,94044.13
2023-03-11T20:23:32.964Z,94056.41
2023-03-11T20:25:59.624Z,94044.34
2023-03-11T20:28:26.314Z,94056.19
2023-03-11T20:30:53.559Z,94052.69
2023-03-11T20:33:20.502Z,94062.59
2023-03-11T20:35:47.402Z,94072.41
2023-03-11T20:38:14.268Z,94063.56
2023-03-11T20:40:41.029Z,94079.81
2023-03-11T20:43:07.771Z,94074.88
2023-03-11T20:45:34.479Z,94079.16
2023-03-11T20:48:01.340Z,94075.34
2023-03-11T20:50:29.012Z,94066.50
2023-03-11T20:52:55.975Z,94079.75
2023-03-11T20:55:22.896Z,94070.22
2023-03-11T20:57:49.624Z,94072.50
2023-03-11T21:00:16.489Z,94071.00
2023-03-11T21:02:43.754Z,94070.38
2023-03-11T21:05:11.535Z,94075.69
2023-03-11T21:07:38.545Z,94065.44
2023-03-11T21:10:06.868Z,94074.91
2023-03-11T21:12:33.564Z,94068.13
2023-03-11T21:15:00.634Z,94081.38
2023-03-11T21:17:27.428Z,94079.81
2023-03-11T21:19:54.199Z,94084.16
2023-03-11T21:22:21.039Z,94073.94
2023-03-11T21:24:54.948Z,94083.59
2023-03-11T21:27:26.202Z,94092.19
2023-03-11T21:29:53.971Z,94105.16
2023-03-11T21:32:20.872Z,94095.88
2023-03-11T21:34:47.745Z,94098.97
2023-03-11T21:37:14.575Z,94093.13
2023-03-11T21:39:41.432Z,94108.47
2023-03-11T21:42:08.104Z,94108.09
2023-03-11T21:44:34.926Z,94108.19
2023-03-11T21:47:02.195Z,94101.50
2023-03-11T21:49:28.996Z,94114.31
2023-03-11T21:51:55.939Z,94112.66
2023-03-11T21:54:22.730Z,94104.34
2023-03-11T21:56:49.775Z,94121.69
2023-03-11T21:59:16.408Z,94127.63
2023-03-11T22:01:43.207Z,94140.22
2023-03-11T22:04:10.218Z,94116.84
2023-03-11T22:06:36.861Z,94132.41
2023-03-11T22:09:04.276Z,94130.91
2023-03-11T22:11:31.203Z,94136.81
2023-03-11T22:14:00.990Z,94143.28
2023-03-11T22:16:27.744Z,94133.09
2023-03-11T22:18:54.586Z,94132.19
2023-03-11T22:21:21.768Z,94140.25
2023-03-11T22:23:48.821Z,94148.31
2023-03-11T22:26:16.059Z,94148.09
2023-03-11T22:28:42.834Z,94145.75
2023-03-11T22:31:11.589Z,94153.56
2023-03-11T22:33:38.424Z,94161.91
2023-03-11T22:36:05.673Z,94164.53
2023-03-11T22:38:32.873Z,94165.03
2023-03-11T22:41:02.470Z,94172.91
2023-03-11T22:43:29.145Z,94181.78
2023-03-11T22:45:55.757Z,94188.88
2023-03-11T22:48:22.479Z,94190.16
2023-03-11T22:50:49.106Z,94181.78
2023-03-11T22:53:15.893Z,94186.63
2023-03-11T22:55:43.638Z,94208.75
2023-03-11T22:58:10.564Z,94204.50
2023-03-11T23:00:37.210Z,94207.81
2023-03-11T23:03:04.520Z,94214.69
2023-03-11T23:05:40.761Z,94203.56
2023-03-11T23:08:08.389Z,94210.84
2023-03-11T23:10:35.018Z,94199.78
2023-03-11T23:13:01.728Z,94203.44
2023-03-11T23:15:28.530Z,94205.50
2023-03-11T23:17:55.250Z,94204.03
2023-03-11T23:20:21.905Z,94207.22
2023-03-11T23:22:48.634Z,94213.53
2023-03-11T23:25:16.016Z,94216.22
2023-03-11T23:27:43.753Z,94220.41
2023-03-11T23:30:11.687Z,94224.97
2023-03-11T23:32:38.362Z,94223.41
2023-03-11T23:35:05.465Z,94227.00
2023-03-11T23:37:32.147Z,94235.34
2023-03-11T23:40:01.123Z,94238.41
2023-03-11T23:42:27.783Z,94234.75
2023-03-11T23:44:54.469Z,94243.84
2023-03-11T23:47:21.376Z,94244.94
2023-03-11T23:49:48.076Z,94238.25
2023-03-11T23:52:14.663Z,94239.16
2023-03-11T23:54:41.424Z,94237.97
2023-03-11T23:57:08.166Z,94233.94
2023-03-11T23:59:34.985Z,94239.50
